sensor_id;sensor_type;location;lat;lon;timestamp;temperature;humidity
45233;DHT22;30969;51.052;17.056;2022-11-21T00:04:13;0.90;69.10
45233;DHT22;30969;51.052;17.056;2022-11-21T00:09:18;0.90;69.20
45233;DHT22;30969;51.052;17.056;2022-11-21T00:14:21;0.90;69.10
45233;DHT22;30969;51.052;17.056;2022-11-21T00:19:25;0.90;69.00
45233;DHT22;30969;51.052;17.056;2022-11-21T00:24:30;0.80;69.00
45233;DHT22;30969;51.052;17.056;2022-11-21T00:29:33;0.80;69.10
45233;DHT22;30969;51.052;17.056;2022-11-21T00:34:37;0.80;69.30
45233;DHT22;30969;51.052;17.056;2022-11-21T00:39:42;0.80;69.50
45233;DHT22;30969;51.052;17.056;2022-11-21T00:44:45;0.90;69.60
45233;DHT22;30969;51.052;17.056;2022-11-21T00:49:49;0.90;69.50
45233;DHT22;30969;51.052;17.056;2022-11-21T00:54:53;0.90;69.40
45233;DHT22;30969;51.052;17.056;2022-11-21T00:59:57;0.90;69.60
45233;DHT22;30969;51.052;17.056;2022-11-21T01:05:01;1.00;69.80
45233;DHT22;30969;51.052;17.056;2022-11-21T01:10:07;1.00;69.70
45233;DHT22;30969;51.052;17.056;2022-11-21T01:15:10;1.10;69.70
45233;DHT22;30969;51.052;17.056;2022-11-21T01:20:14;1.10;69.70
45233;DHT22;30969;51.052;17.056;2022-11-21T01:25:19;1.10;69.90
45233;DHT22;30969;51.052;17.056;2022-11-21T01:30:22;1.10;69.90
45233;DHT22;30969;51.052;17.056;2022-11-21T01:35:26;1.20;70.10
45233;DHT22;30969;51.052;17.056;2022-11-21T01:40:36;1.30;70.20
45233;DHT22;30969;51.052;17.056;2022-11-21T01:46:03;1.30;70.20
45233;DHT22;30969;51.052;17.056;2022-11-21T01:51:10;1.40;70.40
45233;DHT22;30969;51.052;17.056;2022-11-21T01:56:16;1.40;70.70
45233;DHT22;30969;51.052;17.056;2022-11-21T02:01:20;1.40;70.70
45233;DHT22;30969;51.052;17.056;2022-11-21T02:06:24;1.50;70.60
45233;DHT22;30969;51.052;17.056;2022-11-21T02:11:32;1.50;70.60
45233;DHT22;30969;51.052;17.056;2022-11-21T02:16:38;1.60;70.70
45233;DHT22;30969;51.052;17.056;2022-11-21T02:21:47;1.70;70.70
45233;DHT22;30969;51.052;17.056;2022-11-21T02:26:56;1.70;70.70
45233;DHT22;30969;51.052;17.056;2022-11-21T02:32:02;1.80;70.80
45233;DHT22;30969;51.052;17.056;2022-11-21T02:37:07;1.90;70.80
45233;DHT22;30969;51.052;17.056;2022-11-21T02:42:17;1.90;70.80
45233;DHT22;30969;51.052;17.056;2022-11-21T02:47:22;2.00;70.80
45233;DHT22;30969;51.052;17.056;2022-11-21T02:52:26;2.10;70.90
45233;DHT22;30969;51.052;17.056;2022-11-21T02:57:31;2.10;71.10
45233;DHT22;30969;51.052;17.056;2022-11-21T03:02:35;2.10;71.00
45233;DHT22;30969;51.052;17.056;2022-11-21T03:07:38;2.20;70.90
45233;DHT22;30969;51.052;17.056;2022-11-21T03:12:43;2.30;71.00
45233;DHT22;30969;51.052;17.056;2022-11-21T03:17:47;2.30;71.00
45233;DHT22;30969;51.052;17.056;2022-11-21T03:22:51;2.30;70.90
45233;DHT22;30969;51.052;17.056;2022-11-21T03:27:57;2.40;70.90
45233;DHT22;30969;51.052;17.056;2022-11-21T03:33:00;2.50;70.90
45233;DHT22;30969;51.052;17.056;2022-11-21T03:38:04;2.50;70.90
45233;DHT22;30969;51.052;17.056;2022-11-21T03:43:08;2.50;70.90
45233;DHT22;30969;51.052;17.056;2022-11-21T03:48:12;2.60;71.00
45233;DHT22;30969;51.052;17.056;2022-11-21T03:53:16;2.60;71.00
45233;DHT22;30969;51.052;17.056;2022-11-21T03:58:21;2.60;71.00
45233;DHT22;30969;51.052;17.056;2022-11-21T04:03:24;2.60;71.10
45233;DHT22;30969;51.052;17.056;2022-11-21T04:08:27;2.70;71.10
45233;DHT22;30969;51.052;17.056;2022-11-21T04:13:33;2.70;71.10
45233;DHT22;30969;51.052;17.056;2022-11-21T04:18:37;2.70;71.00
45233;DHT22;30969;51.052;17.056;2022-11-21T04:23:40;2.80;71.10
45233;DHT22;30969;51.052;17.056;2022-11-21T04:28:45;2.80;71.10
45233;DHT22;30969;51.052;17.056;2022-11-21T04:33:48;2.80;71.20
45233;DHT22;30969;51.052;17.056;2022-11-21T04:38:51;2.80;71.10
45233;DHT22;30969;51.052;17.056;2022-11-21T04:43:56;2.80;71.30
45233;DHT22;30969;51.052;17.056;2022-11-21T04:49:00;2.80;71.40
45233;DHT22;30969;51.052;17.056;2022-11-21T04:54:04;2.80;71.40
45233;DHT22;30969;51.052;17.056;2022-11-21T04:59:09;2.80;71.40
45233;DHT22;30969;51.052;17.056;2022-11-21T05:04:14;2.90;71.50
45233;DHT22;30969;51.052;17.056;2022-11-21T05:09:17;2.90;71.50
45233;DHT22;30969;51.052;17.056;2022-11-21T05:14:22;2.90;71.40
45233;DHT22;30969;51.052;17.056;2022-11-21T05:19:27;2.90;71.50
45233;DHT22;30969;51.052;17.056;2022-11-21T05:24:31;2.90;71.50
45233;DHT22;30969;51.052;17.056;2022-11-21T05:29:36;3.00;71.50
45233;DHT22;30969;51.052;17.056;2022-11-21T05:34:39;3.00;71.50
45233;DHT22;30969;51.052;17.056;2022-11-21T05:39:43;3.00;71.40
45233;DHT22;30969;51.052;17.056;2022-11-21T05:44:47;3.10;71.50
45233;DHT22;30969;51.052;17.056;2022-11-21T05:49:51;3.10;71.50
45233;DHT22;30969;51.052;17.056;2022-11-21T05:54:55;3.10;71.40
45233;DHT22;30969;51.052;17.056;2022-11-21T06:00:00;3.10;71.40
45233;DHT22;30969;51.052;17.056;2022-11-21T06:05:04;3.10;71.40
45233;DHT22;30969;51.052;17.056;2022-11-21T06:10:08;3.20;71.40
45233;DHT22;30969;51.052;17.056;2022-11-21T06:15:13;3.10;71.40
45233;DHT22;30969;51.052;17.056;2022-11-21T06:20:16;3.10;71.60
45233;DHT22;30969;51.052;17.056;2022-11-21T06:25:20;3.20;71.70
45233;DHT22;30969;51.052;17.056;2022-11-21T06:30:25;3.20;72.70
45233;DHT22;30969;51.052;17.056;2022-11-21T06:35:28;3.20;71.70
45233;DHT22;30969;51.052;17.056;2022-11-21T06:40:32;3.20;71.60
45233;DHT22;30969;51.052;17.056;2022-11-21T06:45:37;3.20;72.00
45233;DHT22;30969;51.052;17.056;2022-11-21T06:50:40;3.20;72.00
45233;DHT22;30969;51.052;17.056;2022-11-21T06:55:44;3.20;72.10
45233;DHT22;30969;51.052;17.056;2022-11-21T07:00:48;3.20;72.00
45233;DHT22;30969;51.052;17.056;2022-11-21T07:05:52;3.20;72.00
45233;DHT22;30969;51.052;17.056;2022-11-21T07:11:00;3.20;72.00
45233;DHT22;30969;51.052;17.056;2022-11-21T07:16:25;3.20;72.20
45233;DHT22;30969;51.052;17.056;2022-11-21T07:21:31;3.30;72.20
45233;DHT22;30969;51.052;17.056;2022-11-21T07:26:35;3.30;72.30
45233;DHT22;30969;51.052;17.056;2022-11-21T07:31:39;3.30;72.30
45233;DHT22;30969;51.052;17.056;2022-11-21T07:36:43;3.30;72.40
45233;DHT22;30969;51.052;17.056;2022-11-21T07:41:46;3.40;72.40
45233;DHT22;30969;51.052;17.056;2022-11-21T07:46:54;3.40;72.40
45233;DHT22;30969;51.052;17.056;2022-11-21T07:51:58;3.50;72.50
45233;DHT22;30969;51.052;17.056;2022-11-21T07:57:01;3.50;72.50
45233;DHT22;30969;51.052;17.056;2022-11-21T08:02:06;3.60;72.60
45233;DHT22;30969;51.052;17.056;2022-11-21T08:07:09;3.70;72.60
45233;DHT22;30969;51.052;17.056;2022-11-21T08:12:14;3.80;72.60
45233;DHT22;30969;51.052;17.056;2022-11-21T08:17:19;3.80;72.70
45233;DHT22;30969;51.052;17.056;2022-11-21T08:22:22;3.90;72.80
45233;DHT22;30969;51.052;17.056;2022-11-21T08:27:27;4.00;72.90
45233;DHT22;30969;51.052;17.056;2022-11-21T08:32:32;4.10;72.90
45233;DHT22;30969;51.052;17.056;2022-11-21T08:37:35;4.20;72.90
45233;DHT22;30969;51.052;17.056;2022-11-21T08:42:39;4.30;72.90
45233;DHT22;30969;51.052;17.056;2022-11-21T08:47:44;4.40;73.00
45233;DHT22;30969;51.052;17.056;2022-11-21T08:52:47;4.40;73.10
45233;DHT22;30969;51.052;17.056;2022-11-21T08:57:51;4.50;73.10
45233;DHT22;30969;51.052;17.056;2022-11-21T09:02:56;4.60;73.10
45233;DHT22;30969;51.052;17.056;2022-11-21T09:07:59;4.70;73.20
45233;DHT22;30969;51.052;17.056;2022-11-21T09:13:02;4.80;73.20
45233;DHT22;30969;51.052;17.056;2022-11-21T09:18:09;4.80;73.20
45233;DHT22;30969;51.052;17.056;2022-11-21T09:23:14;4.90;73.30
45233;DHT22;30969;51.052;17.056;2022-11-21T09:28:17;5.00;73.40
45233;DHT22;30969;51.052;17.056;2022-11-21T09:33:22;5.00;73.30
45233;DHT22;30969;51.052;17.056;2022-11-21T09:38:26;5.10;73.20
45233;DHT22;30969;51.052;17.056;2022-11-21T09:43:41;5.20;73.20
45233;DHT22;30969;51.052;17.056;2022-11-21T09:48:53;5.20;73.20
45233;DHT22;30969;51.052;17.056;2022-11-21T09:54:00;5.30;73.30
45233;DHT22;30969;51.052;17.056;2022-11-21T09:59:16;5.30;73.40
45233;DHT22;30969;51.052;17.056;2022-11-21T10:04:26;5.40;73.50
45233;DHT22;30969;51.052;17.056;2022-11-21T10:09:49;5.50;73.60
45233;DHT22;30969;51.052;17.056;2022-11-21T10:15:06;5.50;74.70
45233;DHT22;30969;51.052;17.056;2022-11-21T10:20:31;5.60;73.80
45233;DHT22;30969;51.052;17.056;2022-11-21T10:25:36;5.70;73.80
45233;DHT22;30969;51.052;17.056;2022-11-21T10:30:42;5.80;73.80
45233;DHT22;30969;51.052;17.056;2022-11-21T10:35:50;5.90;73.80
45233;DHT22;30969;51.052;17.056;2022-11-21T10:41:02;6.10;73.80
45233;DHT22;30969;51.052;17.056;2022-11-21T10:46:07;6.20;73.90
45233;DHT22;30969;51.052;17.056;2022-11-21T10:51:26;6.30;74.10
45233;DHT22;30969;51.052;17.056;2022-11-21T10:56:32;6.40;74.00
45233;DHT22;30969;51.052;17.056;2022-11-21T11:01:36;6.50;73.90
45233;DHT22;30969;51.052;17.056;2022-11-21T11:06:43;6.60;74.00
45233;DHT22;30969;51.052;17.056;2022-11-21T11:11:47;6.70;73.90
45233;DHT22;30969;51.052;17.056;2022-11-21T11:16:50;6.70;73.90
45233;DHT22;30969;51.052;17.056;2022-11-21T11:21:55;6.70;73.90
45233;DHT22;30969;51.052;17.056;2022-11-21T11:26:59;6.80;73.80
45233;DHT22;30969;51.052;17.056;2022-11-21T11:32:12;6.90;73.80
45233;DHT22;30969;51.052;17.056;2022-11-21T11:37:29;6.90;73.80
45233;DHT22;30969;51.052;17.056;2022-11-21T11:42:57;7.00;73.80
45233;DHT22;30969;51.052;17.056;2022-11-21T11:48:20;7.00;73.70
45233;DHT22;30969;51.052;17.056;2022-11-21T11:53:28;7.10;73.70
45233;DHT22;30969;51.052;17.056;2022-11-21T11:58:39;7.10;73.60
45233;DHT22;30969;51.052;17.056;2022-11-21T12:03:49;7.20;73.70
45233;DHT22;30969;51.052;17.056;2022-11-21T12:09:10;7.20;73.60
45233;DHT22;30969;51.052;17.056;2022-11-21T12:14:35;7.30;73.60
45233;DHT22;30969;51.052;17.056;2022-11-21T12:19:59;7.30;73.50
45233;DHT22;30969;51.052;17.056;2022-11-21T12:25:10;7.30;73.70
45233;DHT22;30969;51.052;17.056;2022-11-21T12:30:46;7.30;74.70
45233;DHT22;30969;51.052;17.056;2022-11-21T12:36:09;7.10;73.60
45233;DHT22;30969;51.052;17.056;2022-11-21T12:41:27;6.90;74.10
45233;DHT22;30969;51.052;17.056;2022-11-21T12:47:00;6.70;74.80
45233;DHT22;30969;51.052;17.056;2022-11-21T12:52:13;6.60;75.10
45233;DHT22;30969;51.052;17.056;2022-11-21T12:58:03;6.50;75.50
45233;DHT22;30969;51.052;17.056;2022-11-21T13:03:28;6.30;75.90
45233;DHT22;30969;51.052;17.056;2022-11-21T13:08:35;6.30;76.20
45233;DHT22;30969;51.052;17.056;2022-11-21T13:13:42;6.20;76.30
45233;DHT22;30969;51.052;17.056;2022-11-21T13:18:48;6.10;76.50
45233;DHT22;30969;51.052;17.056;2022-11-21T13:23:52;5.90;77.00
45233;DHT22;30969;51.052;17.056;2022-11-21T13:29:07;5.80;77.50
45233;DHT22;30969;51.052;17.056;2022-11-21T13:34:34;5.80;77.50
45233;DHT22;30969;51.052;17.056;2022-11-21T13:39:39;5.80;77.50
45233;DHT22;30969;51.052;17.056;2022-11-21T13:44:44;5.70;78.20
45233;DHT22;30969;51.052;17.056;2022-11-21T13:49:53;5.60;78.20
45233;DHT22;30969;51.052;17.056;2022-11-21T13:55:12;5.50;78.30
45233;DHT22;30969;51.052;17.056;2022-11-21T14:00:37;5.20;78.10
45233;DHT22;30969;51.052;17.056;2022-11-21T14:06:06;5.10;78.00
45233;DHT22;30969;51.052;17.056;2022-11-21T14:11:25;5.00;77.90
45233;DHT22;30969;51.052;17.056;2022-11-21T14:16:37;4.80;78.40
45233;DHT22;30969;51.052;17.056;2022-11-21T14:21:44;4.60;79.50
45233;DHT22;30969;51.052;17.056;2022-11-21T14:26:50;4.50;80.30
45233;DHT22;30969;51.052;17.056;2022-11-21T14:31:55;4.50;79.80
45233;DHT22;30969;51.052;17.056;2022-11-21T14:37:01;4.50;79.40
45233;DHT22;30969;51.052;17.056;2022-11-21T14:42:10;4.40;79.60
45233;DHT22;30969;51.052;17.056;2022-11-21T14:47:17;4.30;79.80
45233;DHT22;30969;51.052;17.056;2022-11-21T14:52:28;4.20;79.60
45233;DHT22;30969;51.052;17.056;2022-11-21T14:57:36;4.10;79.50
45233;DHT22;30969;51.052;17.056;2022-11-21T15:02:42;4.00;79.40
45233;DHT22;30969;51.052;17.056;2022-11-21T15:07:46;4.00;79.50
45233;DHT22;30969;51.052;17.056;2022-11-21T15:12:55;4.00;79.60
45233;DHT22;30969;51.052;17.056;2022-11-21T15:18:04;4.10;79.50
45233;DHT22;30969;51.052;17.056;2022-11-21T15:23:29;4.10;79.20
45233;DHT22;30969;51.052;17.056;2022-11-21T15:28:33;4.10;79.00
45233;DHT22;30969;51.052;17.056;2022-11-21T15:33:56;4.10;78.80
45233;DHT22;30969;51.052;17.056;2022-11-21T15:39:21;4.10;78.30
45233;DHT22;30969;51.052;17.056;2022-11-21T15:44:24;4.10;78.10
45233;DHT22;30969;51.052;17.056;2022-11-21T15:49:30;4.10;79.10
45233;DHT22;30969;51.052;17.056;2022-11-21T15:54:34;4.10;79.00
45233;DHT22;30969;51.052;17.056;2022-11-21T15:59:38;4.00;77.70
45233;DHT22;30969;51.052;17.056;2022-11-21T16:04:43;3.90;78.00
45233;DHT22;30969;51.052;17.056;2022-11-21T16:09:46;3.70;78.00
45233;DHT22;30969;51.052;17.056;2022-11-21T16:14:51;3.60;77.90
45233;DHT22;30969;51.052;17.056;2022-11-21T16:19:55;3.50;77.60
45233;DHT22;30969;51.052;17.056;2022-11-21T16:24:59;3.50;77.70
45233;DHT22;30969;51.052;17.056;2022-11-21T16:30:03;3.50;77.30
45233;DHT22;30969;51.052;17.056;2022-11-21T16:35:08;3.40;77.40
45233;DHT22;30969;51.052;17.056;2022-11-21T16:40:12;3.50;77.60
45233;DHT22;30969;51.052;17.056;2022-11-21T16:45:15;3.50;77.40
45233;DHT22;30969;51.052;17.056;2022-11-21T16:50:21;3.50;77.60
45233;DHT22;30969;51.052;17.056;2022-11-21T16:55:24;3.40;77.60
45233;DHT22;30969;51.052;17.056;2022-11-21T17:00:28;3.40;77.80
45233;DHT22;30969;51.052;17.056;2022-11-21T17:05:32;3.40;77.80
45233;DHT22;30969;51.052;17.056;2022-11-21T17:10:36;3.30;77.60
45233;DHT22;30969;51.052;17.056;2022-11-21T17:15:40;3.30;77.40
45233;DHT22;30969;51.052;17.056;2022-11-21T17:20:45;3.30;77.50
45233;DHT22;30969;51.052;17.056;2022-11-21T17:25:48;3.20;77.40
45233;DHT22;30969;51.052;17.056;2022-11-21T17:30:52;3.20;78.50
45233;DHT22;30969;51.052;17.056;2022-11-21T17:35:57;3.30;77.40
45233;DHT22;30969;51.052;17.056;2022-11-21T17:41:01;3.30;78.20
45233;DHT22;30969;51.052;17.056;2022-11-21T17:46:07;3.30;77.20
45233;DHT22;30969;51.052;17.056;2022-11-21T17:51:14;3.30;77.00
45233;DHT22;30969;51.052;17.056;2022-11-21T17:56:19;3.30;76.90
45233;DHT22;30969;51.052;17.056;2022-11-21T18:01:24;3.30;76.90
45233;DHT22;30969;51.052;17.056;2022-11-21T18:06:32;3.30;76.90
45233;DHT22;30969;51.052;17.056;2022-11-21T18:11:36;3.30;76.80
45233;DHT22;30969;51.052;17.056;2022-11-21T18:16:42;3.30;77.00
45233;DHT22;30969;51.052;17.056;2022-11-21T18:21:55;3.30;76.90
45233;DHT22;30969;51.052;17.056;2022-11-21T18:26:59;3.30;77.00
45233;DHT22;30969;51.052;17.056;2022-11-21T18:32:02;3.30;77.00
45233;DHT22;30969;51.052;17.056;2022-11-21T18:37:07;3.30;76.80
45233;DHT22;30969;51.052;17.056;2022-11-21T18:42:11;3.30;76.70
45233;DHT22;30969;51.052;17.056;2022-11-21T18:47:15;3.30;76.70
45233;DHT22;30969;51.052;17.056;2022-11-21T18:52:23;3.20;76.60
45233;DHT22;30969;51.052;17.056;2022-11-21T18:57:27;3.20;76.60
45233;DHT22;30969;51.052;17.056;2022-11-21T19:02:30;3.20;76.50
45233;DHT22;30969;51.052;17.056;2022-11-21T19:07:35;3.30;76.70
45233;DHT22;30969;51.052;17.056;2022-11-21T19:12:39;3.30;76.40
45233;DHT22;30969;51.052;17.056;2022-11-21T19:17:42;3.20;76.40
45233;DHT22;30969;51.052;17.056;2022-11-21T19:22:47;3.20;76.40
45233;DHT22;30969;51.052;17.056;2022-11-21T19:27:51;3.20;76.20
45233;DHT22;30969;51.052;17.056;2022-11-21T19:32:56;3.30;76.20
45233;DHT22;30969;51.052;17.056;2022-11-21T19:38:00;3.30;76.10
45233;DHT22;30969;51.052;17.056;2022-11-21T19:43:04;3.40;76.20
45233;DHT22;30969;51.052;17.056;2022-11-21T19:48:07;3.40;76.00
45233;DHT22;30969;51.052;17.056;2022-11-21T19:53:12;3.50;75.70
45233;DHT22;30969;51.052;17.056;2022-11-21T19:58:16;3.60;75.60
45233;DHT22;30969;51.052;17.056;2022-11-21T20:03:20;3.60;75.10
45233;DHT22;30969;51.052;17.056;2022-11-21T20:08:25;3.70;75.20
45233;DHT22;30969;51.052;17.056;2022-11-21T20:13:29;3.70;75.00
45233;DHT22;30969;51.052;17.056;2022-11-21T20:18:33;3.80;75.00
45233;DHT22;30969;51.052;17.056;2022-11-21T20:23:38;3.90;74.90
45233;DHT22;30969;51.052;17.056;2022-11-21T20:28:41;3.90;74.80
45233;DHT22;30969;51.052;17.056;2022-11-21T20:33:46;4.00;74.70
45233;DHT22;30969;51.052;17.056;2022-11-21T20:38:53;4.00;74.70
45233;DHT22;30969;51.052;17.056;2022-11-21T20:43:58;4.10;74.80
45233;DHT22;30969;51.052;17.056;2022-11-21T20:49:22;4.10;74.80
45233;DHT22;30969;51.052;17.056;2022-11-21T20:54:27;4.10;74.60
45233;DHT22;30969;51.052;17.056;2022-11-21T20:59:31;4.20;74.60
45233;DHT22;30969;51.052;17.056;2022-11-21T21:04:34;4.20;74.40
45233;DHT22;30969;51.052;17.056;2022-11-21T21:09:39;4.20;74.50
45233;DHT22;30969;51.052;17.056;2022-11-21T21:14:43;4.20;74.50
45233;DHT22;30969;51.052;17.056;2022-11-21T21:19:47;4.20;74.30
45233;DHT22;30969;51.052;17.056;2022-11-21T21:24:52;4.20;74.30
45233;DHT22;30969;51.052;17.056;2022-11-21T21:29:56;4.30;74.30
45233;DHT22;30969;51.052;17.056;2022-11-21T21:35:00;4.30;74.20
45233;DHT22;30969;51.052;17.056;2022-11-21T21:40:06;4.30;74.10
45233;DHT22;30969;51.052;17.056;2022-11-21T21:45:10;4.30;74.00
45233;DHT22;30969;51.052;17.056;2022-11-21T21:50:13;4.30;74.00
45233;DHT22;30969;51.052;17.056;2022-11-21T21:55:18;4.30;73.90
45233;DHT22;30969;51.052;17.056;2022-11-21T22:00:22;4.30;73.80
45233;DHT22;30969;51.052;17.056;2022-11-21T22:05:25;4.30;73.80
45233;DHT22;30969;51.052;17.056;2022-11-21T22:10:30;4.30;74.90
45233;DHT22;30969;51.052;17.056;2022-11-21T22:15:34;4.40;73.80
45233;DHT22;30969;51.052;17.056;2022-11-21T22:20:37;4.30;73.60
45233;DHT22;30969;51.052;17.056;2022-11-21T22:25:42;4.30;73.70
45233;DHT22;30969;51.052;17.056;2022-11-21T22:30:52;4.30;73.70
45233;DHT22;30969;51.052;17.056;2022-11-21T22:35:58;4.30;73.80
45233;DHT22;30969;51.052;17.056;2022-11-21T22:41:05;4.20;74.40
45233;DHT22;30969;51.052;17.056;2022-11-21T22:46:11;4.20;73.80
45233;DHT22;30969;51.052;17.056;2022-11-21T22:51:16;4.20;73.90
45233;DHT22;30969;51.052;17.056;2022-11-21T22:56:23;4.20;74.00
45233;DHT22;30969;51.052;17.056;2022-11-21T23:01:27;4.20;73.90
45233;DHT22;30969;51.052;17.056;2022-11-21T23:06:30;4.20;74.00
45233;DHT22;30969;51.052;17.056;2022-11-21T23:11:35;4.20;74.10
45233;DHT22;30969;51.052;17.056;2022-11-21T23:16:42;4.30;74.00
45233;DHT22;30969;51.052;17.056;2022-11-21T23:21:45;4.30;73.90
45233;DHT22;30969;51.052;17.056;2022-11-21T23:26:50;4.30;73.80
45233;DHT22;30969;51.052;17.056;2022-11-21T23:31:53;4.40;74.00
45233;DHT22;30969;51.052;17.056;2022-11-21T23:36:57;4.40;74.90
45233;DHT22;30969;51.052;17.056;2022-11-21T23:42:02;4.40;73.80
45233;DHT22;30969;51.052;17.056;2022-11-21T23:47:05;4.40;73.80
45233;DHT22;30969;51.052;17.056;2022-11-21T23:52:09;4.40;73.80
45233;DHT22;30969;51.052;17.056;2022-11-21T23:57:13;4.40;73.80
